createdAt,value
2023-03-20T00:00:30.313Z,81.00
2023-03-20T00:02:57.166Z,81.10
2023-03-20T00:05:24.233Z,81.30
2023-03-20T00:07:50.858Z,81.30
2023-03-20T00:10:18.323Z,81.50
2023-03-20T00:12:45.672Z,81.50
2023-03-20T00:15:25.876Z,81.60
2023-03-20T00:17:52.801Z,81.60
2023-03-20T00:20:19.610Z,81.70
2023-03-20T00:22:46.234Z,81.70
2023-03-20T00:25:17.359Z,81.70
2023-03-20T00:27:44.293Z,81.80
2023-03-20T00:30:31.274Z,81.90
2023-03-20T00:32:58.516Z,82.00
2023-03-20T00:35:26.450Z,81.90
2023-03-20T00:37:53.431Z,82.00
2023-03-20T00:40:20.463Z,82.10
2023-03-20T00:42:49.887Z,82.10
2023-03-20T00:45:18.428Z,82.20
2023-03-20T00:47:45.232Z,82.30
2023-03-20T00:50:23.497Z,82.40
2023-03-20T00:52:50.841Z,82.40
2023-03-20T00:55:18.946Z,82.50
2023-03-20T00:57:50.332Z,82.40
2023-03-20T01:00:44.373Z,82.50
2023-03-20T01:03:21.672Z,82.80
2023-03-20T01:05:48.746Z,82.80
2023-03-20T01:08:20.460Z,82.90
2023-03-20T01:10:48.967Z,83.00
2023-03-20T01:13:19.838Z,83.20
2023-03-20T01:15:46.499Z,83.20
2023-03-20T01:18:14.847Z,83.40
2023-03-20T01:20:41.545Z,83.40
2023-03-20T01:23:08.228Z,83.30
2023-03-20T01:25:35.303Z,83.30
2023-03-20T01:28:02.187Z,83.30
2023-03-20T01:30:30.814Z,83.40
2023-03-20T01:32:58.092Z,83.40
2023-03-20T01:35:26.606Z,83.30
2023-03-20T01:37:53.281Z,83.30
2023-03-20T01:40:31.464Z,83.20
2023-03-20T01:42:58.436Z,83.20
2023-03-20T01:45:29.198Z,83.30
2023-03-20T01:47:55.871Z,83.30
2023-03-20T01:50:29.647Z,83.40
2023-03-20T01:53:02.024Z,83.40
2023-03-20T01:55:28.635Z,83.40
2023-03-20T01:57:55.457Z,83.30
2023-03-20T02:03:19.343Z,83.20
2023-03-20T02:05:46.112Z,83.10
2023-03-20T02:08:27.598Z,83.20
2023-03-20T02:10:54.435Z,83.20
2023-03-20T02:13:21.117Z,83.20
2023-03-20T02:16:07.977Z,83.10
2023-03-20T02:18:34.786Z,83.00
2023-03-20T02:21:28.728Z,83.00
2023-03-20T02:23:55.382Z,82.90
2023-03-20T02:26:21.977Z,82.90
2023-03-20T02:28:57.565Z,82.90
2023-03-20T02:31:35.712Z,82.80
2023-03-20T02:34:23.859Z,82.80
2023-03-20T02:37:18.206Z,82.90
2023-03-20T02:39:50.670Z,82.90
2023-03-20T02:42:44.793Z,83.00
2023-03-20T02:45:17.989Z,82.90
2023-03-20T02:47:56.316Z,82.80
2023-03-20T02:50:52.912Z,82.60
2023-03-20T02:53:31.506Z,82.60
2023-03-20T02:56:18.324Z,82.70
2023-03-20T02:58:51.216Z,82.80
2023-03-20T03:01:26.592Z,82.90
2023-03-20T03:04:02.367Z,82.90
2023-03-20T03:06:29.832Z,83.00
2023-03-20T03:09:17.262Z,83.10
2023-03-20T03:11:49.035Z,83.00
2023-03-20T03:14:32.941Z,83.20
2023-03-20T03:16:59.938Z,83.10
2023-03-20T03:19:26.668Z,83.00
2023-03-20T03:21:53.315Z,83.00
2023-03-20T03:24:40.806Z,83.00
2023-03-20T03:27:37.088Z,82.80
2023-03-20T03:30:26.922Z,82.90
2023-03-20T03:33:11.656Z,82.90
2023-03-20T03:35:38.918Z,82.90
2023-03-20T03:38:32.121Z,83.00
2023-03-20T03:41:31.525Z,82.80
2023-03-20T03:44:18.752Z,82.90
2023-03-20T03:46:50.616Z,83.00
2023-03-20T03:49:21.149Z,82.90
2023-03-20T03:51:49.455Z,83.00
2023-03-20T03:54:24.798Z,83.10
2023-03-20T03:56:51.476Z,83.10
2023-03-20T03:59:25.163Z,83.10
2023-03-20T04:01:51.953Z,83.10
2023-03-20T04:04:20.408Z,83.10
2023-03-20T04:06:47.306Z,83.30
2023-03-20T04:09:14.038Z,83.40
2023-03-20T04:11:40.791Z,83.30
2023-03-20T04:14:07.548Z,83.40
2023-03-20T04:16:34.357Z,83.40
2023-03-20T04:19:01.091Z,83.50
2023-03-20T04:21:27.873Z,83.50
2023-03-20T04:23:54.535Z,83.50
2023-03-20T04:26:21.227Z,83.60
2023-03-20T04:28:47.882Z,83.60
2023-03-20T04:31:14.675Z,83.70
2023-03-20T04:33:41.300Z,83.60
2023-03-20T04:36:08.448Z,83.70
2023-03-20T04:38:35.099Z,83.70
2023-03-20T04:41:01.783Z,84.00
2023-03-20T04:43:28.512Z,83.90
2023-03-20T04:45:55.754Z,83.90
2023-03-20T04:48:22.469Z,83.80
2023-03-20T04:50:49.236Z,83.90
2023-03-20T04:53:16.099Z,83.80
2023-03-20T04:55:43.907Z,83.80
2023-03-20T04:58:10.560Z,83.80
2023-03-20T05:00:37.246Z,83.90
2023-03-20T05:03:03.966Z,83.90
2023-03-20T05:05:30.686Z,83.90
2023-03-20T05:07:57.292Z,84.10
2023-03-20T05:10:24.073Z,84.10
2023-03-20T05:12:50.854Z,84.00
2023-03-20T05:15:18.603Z,84.00
2023-03-20T05:17:45.245Z,83.90
2023-03-20T05:20:12.254Z,84.00
2023-03-20T05:22:38.887Z,84.00
2023-03-20T05:25:06.078Z,84.00
2023-03-20T05:27:44.829Z,84.00
2023-03-20T05:30:12.235Z,83.90
2023-03-20T05:32:39.346Z,84.10
2023-03-20T05:35:06.721Z,84.00
2023-03-20T05:37:33.369Z,84.00
2023-03-20T05:40:00.062Z,83.90
2023-03-20T05:42:26.796Z,84.00
2023-03-20T05:44:53.548Z,84.00
2023-03-20T05:47:20.206Z,83.90
2023-03-20T05:49:46.877Z,83.90
2023-03-20T05:52:13.599Z,83.80
2023-03-20T05:54:40.244Z,83.80
2023-03-20T05:57:06.912Z,83.80
2023-03-20T05:59:33.784Z,83.80
2023-03-20T06:02:00.482Z,83.80
2023-03-20T06:04:27.321Z,83.70
2023-03-20T06:06:54.061Z,83.70
2023-03-20T06:09:20.812Z,83.60
2023-03-20T06:11:47.605Z,83.60
2023-03-20T06:14:14.285Z,83.60
2023-03-20T06:16:41.160Z,83.60
2023-03-20T06:19:08.034Z,83.60
2023-03-20T06:21:34.837Z,83.60
2023-03-20T06:24:01.727Z,83.60
2023-03-20T06:26:28.501Z,83.70
2023-03-20T06:28:55.248Z,83.80
2023-03-20T06:31:32.173Z,83.70
2023-03-20T06:33:58.960Z,83.70
2023-03-20T06:36:26.250Z,83.60
2023-03-20T06:38:52.974Z,83.60
2023-03-20T06:41:33.858Z,83.60
2023-03-20T06:44:01.828Z,83.60
2023-03-20T06:46:28.624Z,83.50
2023-03-20T06:48:55.452Z,83.50
2023-03-20T06:51:22.104Z,83.40
2023-03-20T06:53:48.841Z,83.30
2023-03-20T06:56:15.488Z,83.30
2023-03-20T06:58:42.330Z,83.30
2023-03-20T07:01:12.723Z,83.30
2023-03-20T07:03:39.907Z,83.30
2023-03-20T07:06:06.928Z,83.20
2023-03-20T07:08:35.197Z,83.20
2023-03-20T07:11:02.093Z,83.00
2023-03-20T07:13:28.764Z,83.00
2023-03-20T07:16:04.068Z,82.90
2023-03-20T07:18:30.983Z,82.90
2023-03-20T07:21:02.625Z,82.70
2023-03-20T07:23:29.868Z,82.60
2023-03-20T07:25:56.866Z,82.60
2023-03-20T07:28:23.608Z,82.60
2023-03-20T07:30:50.229Z,82.50
2023-03-20T07:33:17.060Z,82.50
2023-03-20T07:35:43.895Z,82.50
2023-03-20T07:38:10.596Z,82.40
2023-03-20T07:40:37.289Z,82.40
2023-03-20T07:43:04.145Z,82.50
2023-03-20T07:45:30.854Z,82.50
2023-03-20T07:47:57.571Z,82.60
2023-03-20T07:50:24.368Z,82.70
2023-03-20T07:52:51.224Z,82.60
2023-03-20T07:55:18.743Z,82.80
2023-03-20T07:57:45.463Z,82.90
2023-03-20T08:00:14.238Z,82.90
2023-03-20T08:02:40.906Z,82.90
2023-03-20T08:05:08.137Z,83.20
2023-03-20T08:07:35.046Z,83.30
2023-03-20T08:10:02.141Z,83.40
2023-03-20T08:12:30.025Z,83.40
2023-03-20T08:14:56.663Z,83.70
2023-03-20T08:17:23.478Z,83.90
2023-03-20T08:19:50.246Z,84.50
2023-03-20T08:22:17.471Z,84.50
2023-03-20T08:24:44.080Z,84.40
2023-03-20T08:27:10.980Z,84.80
2023-03-20T08:29:37.661Z,85.10
2023-03-20T08:32:04.473Z,85.50
2023-03-20T08:34:31.747Z,85.40
2023-03-20T08:36:58.374Z,85.90
2023-03-20T08:39:25.040Z,85.60
2023-03-20T08:41:51.713Z,85.70
2023-03-20T08:44:18.360Z,86.00
2023-03-20T08:46:45.076Z,86.20
2023-03-20T08:49:13.093Z,86.10
2023-03-20T08:51:39.714Z,86.40
2023-03-20T08:54:06.634Z,86.30
2023-03-20T08:56:33.363Z,86.20
2023-03-20T08:58:59.949Z,86.20
2023-03-20T09:01:35.373Z,86.50
2023-03-20T09:04:09.835Z,86.50
2023-03-20T09:06:37.385Z,86.80
2023-03-20T09:09:04.153Z,86.80
2023-03-20T09:11:31.158Z,86.80
2023-03-20T09:13:58.431Z,87.10
2023-03-20T09:16:25.644Z,86.90
2023-03-20T09:18:52.362Z,86.90
2023-03-20T09:21:19.062Z,86.50
2023-03-20T09:23:45.690Z,86.90
2023-03-20T09:26:12.387Z,86.80
2023-03-20T09:28:39.059Z,87.00
2023-03-20T09:31:05.929Z,86.80
2023-03-20T09:33:32.813Z,86.90
2023-03-20T09:36:02.379Z,86.90
2023-03-20T09:38:29.000Z,86.90
2023-03-20T09:41:07.775Z,87.00
2023-03-20T09:44:06.717Z,86.90
2023-03-20T09:47:08.723Z,86.80
2023-03-20T09:49:48.448Z,86.80
2023-03-20T09:52:30.882Z,86.10
2023-03-20T09:55:19.353Z,86.30
2023-03-20T09:57:49.224Z,86.40
2023-03-20T10:00:17.686Z,86.10
2023-03-20T10:02:48.604Z,84.50
2023-03-20T10:05:27.777Z,85.20
2023-03-20T10:07:55.740Z,85.50
2023-03-20T10:10:26.959Z,85.30
2023-03-20T10:13:27.704Z,85.10
2023-03-20T10:16:03.339Z,84.70
2023-03-20T10:18:30.104Z,84.00
2023-03-20T10:21:16.092Z,84.10
2023-03-20T10:23:48.057Z,84.40
2023-03-20T10:26:17.859Z,83.90
2023-03-20T10:28:50.686Z,83.60
2023-03-20T10:31:40.669Z,81.80
2023-03-20T10:35:08.949Z,82.90
2023-03-20T10:38:12.534Z,82.60
2023-03-20T10:40:40.468Z,82.70
2023-03-20T10:43:21.286Z,82.80
2023-03-20T10:45:52.561Z,82.50
2023-03-20T10:48:46.962Z,82.80
2023-03-20T10:51:23.233Z,82.10
2023-03-20T10:54:02.601Z,82.00
2023-03-20T10:56:33.089Z,82.10
2023-03-20T10:59:06.912Z,82.00
2023-03-20T11:01:35.714Z,81.30
2023-03-20T11:04:02.894Z,80.50
2023-03-20T11:06:35.838Z,79.60
2023-03-20T11:09:18.454Z,78.80
2023-03-20T11:11:46.652Z,78.10
2023-03-20T11:14:20.933Z,77.90
2023-03-20T11:16:53.980Z,77.80
2023-03-20T11:19:21.695Z,77.70
2023-03-20T11:21:58.377Z,77.40
2023-03-20T11:27:18.693Z,77.20
2023-03-20T11:29:49.420Z,76.90
2023-03-20T11:32:32.433Z,77.00
2023-03-20T11:35:11.012Z,74.80
2023-03-20T11:37:46.266Z,75.90
2023-03-20T11:40:12.847Z,74.50
2023-03-20T11:42:39.500Z,74.40
2023-03-20T11:45:16.889Z,73.20
2023-03-20T11:47:43.719Z,72.80
2023-03-20T11:50:25.924Z,72.80
2023-03-20T11:52:52.647Z,71.30
2023-03-20T11:55:30.903Z,72.50
2023-03-20T11:58:04.679Z,72.20
2023-03-20T12:00:39.271Z,72.30
2023-03-20T12:03:33.081Z,72.30
2023-03-20T12:06:00.720Z,72.30
2023-03-20T12:08:27.634Z,72.30
2023-03-20T12:10:57.468Z,72.30
2023-03-20T12:13:32.334Z,72.30
2023-03-20T12:16:12.219Z,72.00
2023-03-20T12:18:45.526Z,72.00
2023-03-20T12:21:48.398Z,71.80
2023-03-20T12:24:30.871Z,71.30
2023-03-20T12:27:00.848Z,71.70
2023-03-20T12:29:34.792Z,72.00
2023-03-20T12:32:03.883Z,72.20
2023-03-20T12:34:37.578Z,72.10
2023-03-20T12:37:04.374Z,72.60
2023-03-20T12:39:35.560Z,73.10
2023-03-20T12:42:08.368Z,73.90
2023-03-20T12:44:56.221Z,74.50
2023-03-20T12:47:53.744Z,76.00
2023-03-20T12:50:28.853Z,76.00
2023-03-20T12:53:17.610Z,76.30
2023-03-20T12:56:03.597Z,76.20
2023-03-20T12:58:56.716Z,76.10
2023-03-20T13:01:31.999Z,76.30
2023-03-20T13:04:13.993Z,76.00
2023-03-20T13:06:49.191Z,75.90
2023-03-20T13:09:45.019Z,75.90
2023-03-20T13:12:20.999Z,76.30
2023-03-20T13:14:47.523Z,76.30
2023-03-20T13:17:22.420Z,77.20
2023-03-20T13:20:19.798Z,77.00
2023-03-20T13:23:16.055Z,77.40
2023-03-20T13:26:03.999Z,77.40
2023-03-20T13:29:29.833Z,77.50
2023-03-20T13:32:17.788Z,77.90
2023-03-20T13:35:06.439Z,78.00
2023-03-20T13:37:48.730Z,78.30
2023-03-20T13:40:24.782Z,78.00
2023-03-20T13:43:03.495Z,78.10
2023-03-20T13:45:42.933Z,78.20
2023-03-20T13:48:38.028Z,78.10
2023-03-20T13:51:31.964Z,78.10
2023-03-20T13:54:27.539Z,77.80
2023-03-20T13:57:09.987Z,77.80
2023-03-20T13:59:58.151Z,77.80
2023-03-20T14:02:53.289Z,77.60
2023-03-20T14:05:21.468Z,77.80
2023-03-20T14:07:49.293Z,77.70
2023-03-20T14:10:22.057Z,77.70
2023-03-20T14:12:59.784Z,77.70
2023-03-20T14:15:29.099Z,77.80
2023-03-20T14:17:55.796Z,77.80
2023-03-20T14:20:33.260Z,77.90
2023-03-20T14:22:59.946Z,78.00
2023-03-20T14:25:26.729Z,78.00
2023-03-20T14:27:58.431Z,78.20
2023-03-20T14:30:31.244Z,78.10
2023-03-20T14:33:18.587Z,78.20
2023-03-20T14:36:11.236Z,78.50
2023-03-20T14:39:05.193Z,78.60
2023-03-20T14:41:59.052Z,78.60
2023-03-20T14:44:50.016Z,78.80
2023-03-20T14:47:37.789Z,78.60
2023-03-20T14:50:22.638Z,78.70
2023-03-20T14:53:11.029Z,79.10
2023-03-20T14:55:47.781Z,79.10
2023-03-20T14:58:49.589Z,79.90
2023-03-20T15:01:22.137Z,79.80
2023-03-20T15:03:57.979Z,79.60
2023-03-20T15:06:25.858Z,79.70
2023-03-20T15:08:57.164Z,79.80
2023-03-20T15:11:23.990Z,80.00
2023-03-20T15:13:50.852Z,80.30
2023-03-20T15:16:17.601Z,80.20
2023-03-20T15:18:46.661Z,80.60
2023-03-20T15:21:18.174Z,80.80
2023-03-20T15:23:45.574Z,80.80
2023-03-20T15:26:18.069Z,81.00
2023-03-20T15:28:45.452Z,81.20
2023-03-20T15:31:31.710Z,81.50
2023-03-20T15:33:59.185Z,81.50
2023-03-20T15:36:35.141Z,81.30
2023-03-20T15:39:16.063Z,81.30
2023-03-20T15:41:59.747Z,81.20
2023-03-20T15:44:50.531Z,81.10
2023-03-20T15:47:21.464Z,81.00
2023-03-20T15:49:58.406Z,80.60
2023-03-20T15:52:51.331Z,80.50
2023-03-20T15:55:18.765Z,80.10
2023-03-20T15:57:45.621Z,80.30
2023-03-20T16:00:35.162Z,80.10
2023-03-20T16:03:03.694Z,80.00
2023-03-20T16:05:30.412Z,79.80
2023-03-20T16:07:57.185Z,79.90
2023-03-20T16:10:32.065Z,79.80
2023-03-20T16:12:58.811Z,79.40
2023-03-20T16:15:27.537Z,79.50
2023-03-20T16:17:56.269Z,79.30
2023-03-20T16:20:23.144Z,79.20
2023-03-20T16:22:59.476Z,79.20
2023-03-20T16:25:26.157Z,79.10
2023-03-20T16:27:52.854Z,79.10
2023-03-20T16:30:27.429Z,79.00
2023-03-20T16:32:59.173Z,78.90
2023-03-20T16:35:47.020Z,78.90
2023-03-20T16:38:26.441Z,78.80
2023-03-20T16:40:55.766Z,78.30
2023-03-20T16:43:23.649Z,78.20
2023-03-20T16:45:55.242Z,78.10
2023-03-20T16:48:27.196Z,78.30
2023-03-20T16:51:20.847Z,78.20
2023-03-20T16:53:48.932Z,78.10
2023-03-20T16:56:26.536Z,78.20
2023-03-20T16:58:56.438Z,78.20
2023-03-20T17:01:24.626Z,78.40
2023-03-20T17:03:55.417Z,78.40
2023-03-20T17:06:22.030Z,78.40
2023-03-20T17:08:50.306Z,78.50
2023-03-20T17:11:37.652Z,78.50
2023-03-20T17:14:04.552Z,78.70
2023-03-20T17:16:31.655Z,78.80
2023-03-20T17:19:00.311Z,78.80
2023-03-20T17:21:27.218Z,79.00
2023-03-20T17:23:54.532Z,79.10
2023-03-20T17:26:21.697Z,79.10
2023-03-20T17:28:48.427Z,79.20
2023-03-20T17:31:16.061Z,79.20
2023-03-20T17:33:42.943Z,79.40
2023-03-20T17:36:30.535Z,79.50
2023-03-20T17:38:57.754Z,80.00
2023-03-20T17:41:24.653Z,79.90
2023-03-20T17:43:51.524Z,79.90
2023-03-20T17:46:24.892Z,80.10
2023-03-20T17:48:52.303Z,80.30
2023-03-20T17:51:18.994Z,80.60
2023-03-20T17:53:45.731Z,80.80
2023-03-20T17:56:15.820Z,80.90
2023-03-20T17:58:42.691Z,81.00
2023-03-20T18:01:09.724Z,81.00
2023-03-20T18:03:47.927Z,81.10
2023-03-20T18:06:26.638Z,81.40
2023-03-20T18:08:58.202Z,81.50
2023-03-20T18:11:44.439Z,81.70
2023-03-20T18:14:13.988Z,81.60
2023-03-20T18:16:40.745Z,82.10
2023-03-20T18:19:26.050Z,82.10
2023-03-20T18:21:53.889Z,82.20
2023-03-20T18:24:23.776Z,82.30
2023-03-20T18:26:50.798Z,82.10
2023-03-20T18:29:17.491Z,82.30
2023-03-20T18:31:44.278Z,82.50
2023-03-20T18:34:17.177Z,82.40
2023-03-20T18:36:49.068Z,82.50
2023-03-20T18:39:27.791Z,82.60
2023-03-20T18:42:04.507Z,82.50
2023-03-20T18:47:14.390Z,82.40
2023-03-20T18:49:44.462Z,82.50
2023-03-20T18:52:14.934Z,82.50
2023-03-20T18:54:45.333Z,82.80
2023-03-20T18:57:20.189Z,82.40
2023-03-20T18:59:46.910Z,82.40
2023-03-20T19:02:14.066Z,82.60
2023-03-20T19:04:41.095Z,82.70
2023-03-20T19:07:10.303Z,82.70
2023-03-20T19:09:37.108Z,82.90
2023-03-20T19:12:04.081Z,83.30
2023-03-20T19:14:33.012Z,83.40
2023-03-20T19:17:01.255Z,83.40
2023-03-20T19:19:30.332Z,84.20
2023-03-20T19:22:00.967Z,84.00
2023-03-20T19:24:39.042Z,84.00
2023-03-20T19:27:10.405Z,84.30
2023-03-20T19:29:38.342Z,84.80
2023-03-20T19:32:09.852Z,85.00
2023-03-20T19:35:35.270Z,85.60
2023-03-20T19:37:33.573Z,85.50
2023-03-20T19:40:00.960Z,85.60
2023-03-20T19:42:52.792Z,85.90
2023-03-20T19:45:19.561Z,86.00
2023-03-20T19:47:48.269Z,86.50
2023-03-20T19:50:34.092Z,86.60
2023-03-20T19:55:49.469Z,86.50
2023-03-20T19:58:17.942Z,86.60
2023-03-20T20:00:57.621Z,86.60
2023-03-20T20:03:28.177Z,86.40
2023-03-20T20:06:05.016Z,87.10
2023-03-20T20:08:46.985Z,87.10
2023-03-20T20:11:16.055Z,87.30
2023-03-20T20:14:08.116Z,87.30
2023-03-20T20:16:30.465Z,87.50
2023-03-20T20:18:58.395Z,87.40
2023-03-20T20:24:20.697Z,87.70
2023-03-20T20:27:03.440Z,87.90
2023-03-20T20:29:38.789Z,87.80
2023-03-20T20:32:09.972Z,88.00
2023-03-20T20:35:30.900Z,88.00
2023-03-20T20:40:19.222Z,88.30
2023-03-20T20:42:47.862Z,88.20
2023-03-20T20:45:18.589Z,88.20
2023-03-20T20:47:49.627Z,88.40
2023-03-20T20:50:25.817Z,89.00
2023-03-20T20:52:54.376Z,88.70
2023-03-20T20:55:25.102Z,88.70
2023-03-20T20:58:15.379Z,88.60
2023-03-20T21:00:51.192Z,88.60
2023-03-20T21:03:36.213Z,88.30
2023-03-20T21:06:07.232Z,88.30
2023-03-20T21:08:38.333Z,88.40
2023-03-20T21:11:14.461Z,88.50
2023-03-20T21:13:42.938Z,88.20
2023-03-20T21:16:14.743Z,88.70
2023-03-20T21:18:47.191Z,89.00
2023-03-20T21:21:15.200Z,88.30
2023-03-20T21:23:42.499Z,88.20
2023-03-20T21:26:09.547Z,88.00
2023-03-20T21:28:37.262Z,88.00
2023-03-20T21:31:23.275Z,88.10
2023-03-20T21:33:53.535Z,88.10
2023-03-20T21:36:27.908Z,88.30
2023-03-20T21:39:07.821Z,87.90
2023-03-20T21:41:39.572Z,88.20
2023-03-20T21:44:07.640Z,88.10
2023-03-20T21:52:56.924Z,88.10
2023-03-20T21:55:55.254Z,88.00
2023-03-20T22:04:14.541Z,87.90
2023-03-20T22:15:33.995Z,88.30
2023-03-20T22:24:20.423Z,88.20
2023-03-20T22:29:45.298Z,88.60
2023-03-20T22:32:38.591Z,88.50
2023-03-20T22:35:40.906Z,88.50
2023-03-20T22:46:36.102Z,88.90
2023-03-20T22:48:57.508Z,89.00
2023-03-20T22:51:36.885Z,89.20
2023-03-20T22:54:10.406Z,89.10
2023-03-20T22:56:45.266Z,89.20
2023-03-20T22:59:39.942Z,89.20
2023-03-20T23:02:11.151Z,89.30
2023-03-20T23:04:39.467Z,89.60
2023-03-20T23:07:06.385Z,89.40
2023-03-20T23:09:39.739Z,89.40
2023-03-20T23:12:07.158Z,89.30
2023-03-20T23:14:45.495Z,89.30
2023-03-20T23:17:13.090Z,89.20
2023-03-20T23:19:47.802Z,89.20
2023-03-20T23:22:19.354Z,89.30
2023-03-20T23:24:47.835Z,89.30
2023-03-20T23:30:00.122Z,89.30
2023-03-20T23:32:27.751Z,89.30
2023-03-20T23:34:57.971Z,89.40
2023-03-20T23:37:30.845Z,89.40
2023-03-20T23:39:57.473Z,89.50
2023-03-20T23:42:30.552Z,89.40
2023-03-20T23:45:07.074Z,89.40
2023-03-20T23:50:31.847Z,89.50
2023-03-20T23:53:17.128Z,89.60
2023-03-20T23:55:46.905Z,89.50
2023-03-20T23:58:13.876Z,89.50
